Stk-1004 — UBEM — position and weather

sailwx.info

Track history (hours):
 
Tides and Currents Weather Stations Pressure Air Temp Water Temp Dewpoint Dewpoint Depression Visibility Wind Speed Wind Dir Waves Ship Positions

Stk-1004

Last reported at 2017-Nov-19 09:12 UTC. Time now 2017-Nov-21 12:02 UTC.
Position N 60°28' E 028°42'.

Length 82 m; draft 3.6 m.

Type: Cargo ship. MMSI: 273439130.

Date/timePositionNaut miles runAvg speedWind from/ knotsBaromVisibWave heightAir tempDewpointWater temp
2017-Nov-19 09:12N 60°28' E 028°42'2 8.0
2017-Nov-19 09:01N 60°27' E 028°42'  
2017-Nov-16 11:23N 60°28' E 028°21'3 7.2
2017-Nov-16 11:01N 60°26' E 028°20'4 7.6
2017-Nov-16 10:31N 60°22' E 028°21'4 7.1
2017-Nov-16 10:01N 60°19' E 028°24'3 6.7
2017-Nov-16 09:31N 60°16' E 028°29'3 6.5
2017-Nov-16 09:00N 60°15' E 028°35'3 6.5
2017-Nov-16 08:30N 60°13' E 028°41'3 6.9
2017-Nov-16 08:00N 60°12' E 028°47'4 7.1
2017-Nov-16 07:28N 60°11' E 028°54'25 6.2
2017-Nov-16 03:27N 59°60' E 029°39'3 7.0
2017-Nov-16 02:59N 59°59' E 029°45'4 7.9
2017-Nov-16 02:30N 59°57' E 029°52'4 7.8
2017-Nov-16 02:00N 59°56' E 029°59'4 7.7
2017-Nov-16 01:30N 59°54' E 030°06'3 6.6
2017-Nov-16 01:00N 59°54' E 030°13'3 7.0
2017-Nov-16 00:30N 59°56' E 030°18'3 6.4
2017-Nov-16 00:00N 59°56' E 030°24'1 2.3
2017-Nov-15 23:30N 59°55' E 030°24'0 0.0
2017-Nov-15 23:00N 59°55' E 030°24'0 0.0
2017-Nov-15 22:30N 59°55' E 030°24'0 0.0
2017-Nov-15 22:00N 59°55' E 030°24'0 0.0
2017-Nov-15 21:29N 59°55' E 030°24'0 0.0
2017-Nov-15 20:57N 59°55' E 030°24'0 0.0
2017-Nov-15 20:30N 59°55' E 030°24'0 0.0
2017-Nov-15 20:00N 59°55' E 030°24'0 0.0
2017-Nov-15 19:30N 59°55' E 030°24'0 0.0
2017-Nov-15 18:56N 59°55' E 030°24'0 0.0
2017-Nov-15 18:30N 59°55' E 030°24'0 0.0
2017-Nov-15 17:58N 59°55' E 030°24'0 0.0
2017-Nov-15 17:30N 59°55' E 030°24'0 0.0
2017-Nov-15 17:00N 59°55' E 030°24'0 0.0
2017-Nov-15 16:30N 59°55' E 030°24'0 0.0
2017-Nov-15 15:55N 59°55' E 030°24'0 0.0
2017-Nov-15 15:30N 59°55' E 030°24'0 0.0
2017-Nov-15 14:59N 59°55' E 030°24'0 0.0
2017-Nov-15 14:30N 59°55' E 030°24'0 0.0
2017-Nov-15 13:59N 59°55' E 030°24'0 0.0
2017-Nov-15 13:29N 59°55' E 030°24'0 0.0
2017-Nov-15 13:00N 59°55' E 030°24'0 0.0
2017-Nov-15 12:29N 59°55' E 030°24'0 0.0
2017-Nov-15 12:00N 59°55' E 030°24'0 0.0
2017-Nov-15 11:30N 59°55' E 030°24'0 0.0
2017-Nov-15 11:00N 59°55' E 030°24'0 0.0
2017-Nov-15 10:30N 59°55' E 030°24'0 0.1
2017-Nov-15 10:00N 59°55' E 030°24'  
Track history (hours):
 
Tides and Currents Weather Stations Pressure Air Temp Water Temp Dewpoint Dewpoint Depression Visibility Wind Speed Wind Dir Waves Ship Positions

Stk-1004

Last reported at 2017-Nov-19 09:12 UTC. Time now 2017-Nov-21 12:02 UTC.
Position N 60°28' E 028°42'.

Length 82 m; draft 3.6 m.

Type: Cargo ship. MMSI: 273439130.

Date/timePositionNaut miles runAvg speedWind from/ knotsBaromVisibWave heightAir tempDewpointWater temp
2017-Nov-19 09:12N 60°28' E 028°42'2 8.0
2017-Nov-19 09:01N 60°27' E 028°42'  
2017-Nov-16 11:23N 60°28' E 028°21'3 7.2
2017-Nov-16 11:01N 60°26' E 028°20'4 7.6
2017-Nov-16 10:31N 60°22' E 028°21'4 7.1
2017-Nov-16 10:01N 60°19' E 028°24'3 6.7
2017-Nov-16 09:31N 60°16' E 028°29'3 6.5
2017-Nov-16 09:00N 60°15' E 028°35'3 6.5
2017-Nov-16 08:30N 60°13' E 028°41'3 6.9
2017-Nov-16 08:00N 60°12' E 028°47'4 7.1
2017-Nov-16 07:28N 60°11' E 028°54'25 6.2
2017-Nov-16 03:27N 59°60' E 029°39'3 7.0
2017-Nov-16 02:59N 59°59' E 029°45'4 7.9
2017-Nov-16 02:30N 59°57' E 029°52'4 7.8
2017-Nov-16 02:00N 59°56' E 029°59'4 7.7
2017-Nov-16 01:30N 59°54' E 030°06'3 6.6
2017-Nov-16 01:00N 59°54' E 030°13'3 7.0
2017-Nov-16 00:30N 59°56' E 030°18'3 6.4
2017-Nov-16 00:00N 59°56' E 030°24'1 2.3
2017-Nov-15 23:30N 59°55' E 030°24'0 0.0
2017-Nov-15 23:00N 59°55' E 030°24'0 0.0
2017-Nov-15 22:30N 59°55' E 030°24'0 0.0
2017-Nov-15 22:00N 59°55' E 030°24'0 0.0
2017-Nov-15 21:29N 59°55' E 030°24'0 0.0
2017-Nov-15 20:57N 59°55' E 030°24'0 0.0
2017-Nov-15 20:30N 59°55' E 030°24'0 0.0
2017-Nov-15 20:00N 59°55' E 030°24'0 0.0
2017-Nov-15 19:30N 59°55' E 030°24'0 0.0
2017-Nov-15 18:56N 59°55' E 030°24'0 0.0
2017-Nov-15 18:30N 59°55' E 030°24'0 0.0
2017-Nov-15 17:58N 59°55' E 030°24'0 0.0
2017-Nov-15 17:30N 59°55' E 030°24'0 0.0
2017-Nov-15 17:00N 59°55' E 030°24'0 0.0
2017-Nov-15 16:30N 59°55' E 030°24'0 0.0
2017-Nov-15 15:55N 59°55' E 030°24'0 0.0
2017-Nov-15 15:30N 59°55' E 030°24'0 0.0
2017-Nov-15 14:59N 59°55' E 030°24'0 0.0
2017-Nov-15 14:30N 59°55' E 030°24'0 0.0
2017-Nov-15 13:59N 59°55' E 030°24'0 0.0
2017-Nov-15 13:29N 59°55' E 030°24'0 0.0
2017-Nov-15 13:00N 59°55' E 030°24'0 0.0
2017-Nov-15 12:29N 59°55' E 030°24'0 0.0
2017-Nov-15 12:00N 59°55' E 030°24'0 0.0
2017-Nov-15 11:30N 59°55' E 030°24'0 0.0
2017-Nov-15 11:00N 59°55' E 030°24'0 0.0
2017-Nov-15 10:30N 59°55' E 030°24'0 0.1
2017-Nov-15 10:00N 59°55' E 030°24'  

Dump ship's entire track history